Time;durP1;ratioP1;P1;durP2;ratioP2;P2;SDS_P1;SDS_P2;PMS_P1;PMS_P2;Temp;Humidity;BMP_temperature;BMP_pressure;BME280_temperature;BME280_humidity;BME280_pressure;Samples;Min_cycle;Max_cycle;Signal;HPM_P1;HPM_P2
2022/06/30 00:00:51;;;;;;;;;;;;;;;21.44;53.06;100910.72;7276150;19;153286;-82
2022/06/30 00:03:18;;;;;;;;;;;;;;;21.46;53.58;100911.22;7279359;19;153755;-81
2022/06/30 00:05:45;;;;;;;;;;;;;;;21.35;53.54;100904.97;7275108;19;154052;-82
2022/06/30 00:08:11;;;;;;;;;;;;;;;21.40;53.13;100904.88;7277121;19;153310;-81
2022/06/30 00:10:38;;;;;;;;;;;;;;;21.46;53.31;100912.06;7279804;19;152496;-81
2022/06/30 00:13:05;;;;;;;;;;;;;;;21.48;53.08;100911.75;7278302;19;153142;-82
2022/06/30 00:15:35;;;;;;;;;;;;;;;21.39;53.27;100903.22;7284612;19;154464;-81
2022/06/30 00:18:02;;;;;;;;;;;;;;;21.35;53.49;100899.34;7281166;19;154396;-82
2022/06/30 00:20:29;;;;;;;;;;;;;;;21.31;53.45;100901.13;7281593;19;152767;-86
2022/06/30 00:22:56;;;;;;;;;;;;;;;21.27;53.79;100900.94;7284845;19;152375;-85
2022/06/30 00:25:22;;;;;;;;;;;;;;;21.24;54.10;100903.56;7286775;19;153065;-83
2022/06/30 00:27:49;;;;;;;;;;;;;;;21.24;53.94;100900.75;7285319;19;155085;-85
2022/06/30 00:30:17;;;;;;;;;;;;;;;21.27;53.72;100908.53;7285972;19;152774;-85
2022/06/30 00:32:45;;;;;;;;;;;;;;;21.27;54.11;100915.00;7284223;19;153925;-85
2022/06/30 00:35:11;;;;;;;;;;;;;;;21.23;54.14;100915.94;7289478;19;152145;-85
2022/06/30 00:37:38;;;;;;;;;;;;;;;21.22;53.85;100915.09;7286099;19;152647;-84
2022/06/30 00:40:05;;;;;;;;;;;;;;;21.22;54.31;100914.28;7281890;19;154178;-85
2022/06/30 00:42:32;;;;;;;;;;;;;;;21.23;54.42;100905.53;7286028;19;153265;-85
2022/06/30 00:44:59;;;;;;;;;;;;;;;21.27;54.21;100889.69;7283855;19;153128;-85
2022/06/30 00:47:26;;;;;;;;;;;;;;;21.23;53.76;100862.53;7284667;19;157011;-85
2022/06/30 00:49:53;;;;;;;;;;;;;;;21.22;54.02;100858.91;7282645;19;152189;-84
2022/06/30 00:52:19;;;;;;;;;;;;;;;21.21;54.12;100857.22;7283929;19;153686;-83
2022/06/30 00:54:47;;;;;;;;;;;;;;;21.31;54.20;100864.59;7282893;19;153684;-81
2022/06/30 00:57:14;;;;;;;;;;;;;;;21.32;54.28;100859.81;7292896;19;158633;-82
2022/06/30 00:59:44;;;;;;;;;;;;;;;21.27;54.52;100849.53;7283597;19;152929;-82
2022/06/30 01:02:12;;;;;;;;;;;;;;;21.26;54.62;100845.03;7285508;19;152090;-83
2022/06/30 01:04:39;;;;;;;;;;;;;;;21.27;54.69;100844.75;7282945;19;154861;-82
2022/06/30 01:07:06;;;;;;;;;;;;;;;21.28;54.46;100852.03;7281414;19;153970;-83
2022/06/30 01:15:06;;;;;;;;;;;;;;;21.30;54.62;100843.28;7282746;19;153178;-81
2022/06/30 01:17:32;;;;;;;;;;;;;;;21.28;54.56;100846.41;7283310;19;152850;-81
2022/06/30 01:20:02;;;;;;;;;;;;;;;21.29;54.76;100850.88;7288725;19;151911;-81
2022/06/30 01:22:29;;;;;;;;;;;;;;;21.32;54.61;100848.56;7283342;19;152501;-82
2022/06/30 01:24:55;;;;;;;;;;;;;;;21.30;54.69;100855.34;7285085;19;152170;-83
2022/06/30 01:27:22;;;;;;;;;;;;;;;21.29;55.09;100852.88;7283968;19;152280;-82
2022/06/30 01:29:50;;;;;;;;;;;;;;;21.29;55.06;100853.69;7285095;19;152417;-82
2022/06/30 01:32:17;;;;;;;;;;;;;;;21.32;54.89;100852.22;7281461;19;154202;-82
2022/06/30 01:34:45;;;;;;;;;;;;;;;21.30;55.19;100846.91;7281197;19;153964;-82
2022/06/30 01:37:13;;;;;;;;;;;;;;;21.37;54.91;100854.91;7283388;19;151934;-82
2022/06/30 01:39:40;;;;;;;;;;;;;;;21.32;55.24;100854.19;7282783;19;153041;-82
2022/06/30 01:42:08;;;;;;;;;;;;;;;21.34;55.30;100851.91;7291233;19;152623;-82
2022/06/30 01:44:34;;;;;;;;;;;;;;;21.40;55.12;100853.44;7284088;19;155385;-81
2022/06/30 01:47:01;;;;;;;;;;;;;;;21.35;55.25;100845.97;7281517;19;154660;-82
2022/06/30 01:49:28;;;;;;;;;;;;;;;21.37;55.43;100840.03;7284531;19;152071;-81
2022/06/30 01:51:55;;;;;;;;;;;;;;;21.36;55.11;100842.00;7280014;19;154061;-81
2022/06/30 01:54:22;;;;;;;;;;;;;;;21.36;55.26;100843.97;7284593;19;153933;-81
2022/06/30 01:56:49;;;;;;;;;;;;;;;21.33;55.78;100834.22;7282037;19;151962;-81
2022/06/30 01:59:16;;;;;;;;;;;;;;;21.33;55.70;100836.19;7283234;19;153386;-81
2022/06/30 02:01:43;;;;;;;;;;;;;;;21.33;55.81;100841.81;7279024;19;153922;-81
2022/06/30 02:06:57;;;;;;;;;;;;;;;21.36;55.37;100858.88;7280214;19;154179;-81
2022/06/30 02:09:36;;;;;;;;;;;;;;;21.34;55.41;100864.00;7284209;19;152456;-81
2022/06/30 02:14:49;;;;;;;;;;;;;;;21.35;55.77;100859.22;7282789;19;156093;-82
2022/06/30 02:17:16;;;;;;;;;;;;;;;21.35;55.81;100859.22;7281605;19;152266;-82
2022/06/30 02:19:43;;;;;;;;;;;;;;;21.39;55.89;100851.81;7281163;19;153404;-82
2022/06/30 02:22:10;;;;;;;;;;;;;;;21.40;55.51;100856.25;7278558;19;153834;-82
2022/06/30 02:24:36;;;;;;;;;;;;;;;21.39;56.04;100849.00;7283791;19;152165;-82
2022/06/30 02:27:03;;;;;;;;;;;;;;;21.37;55.73;100849.31;7288085;19;153863;-82
2022/06/30 02:29:30;;;;;;;;;;;;;;;21.36;56.02;100861.69;7282054;19;152034;-82
2022/06/30 02:31:57;;;;;;;;;;;;;;;21.39;55.87;100865.84;7282805;19;153335;-82
2022/06/30 02:34:24;;;;;;;;;;;;;;;21.39;55.91;100868.66;7281625;19;153944;-83
2022/06/30 02:36:50;;;;;;;;;;;;;;;21.39;56.00;100868.66;7280973;19;151780;-83
2022/06/30 02:39:17;;;;;;;;;;;;;;;21.41;56.10;100871.97;7283464;19;154359;-82
2022/06/30 02:41:44;;;;;;;;;;;;;;;21.42;56.05;100873.66;7278682;19;152633;-83
2022/06/30 02:44:11;;;;;;;;;;;;;;;21.41;56.01;100871.97;7281059;19;152188;-82
2022/06/30 02:46:37;;;;;;;;;;;;;;;21.42;55.67;100884.88;7286370;19;154482;-82
2022/06/30 02:49:04;;;;;;;;;;;;;;;21.43;56.29;100878.13;7280243;19;152077;-82
2022/06/30 02:51:31;;;;;;;;;;;;;;;21.40;56.26;100871.13;7281000;19;152816;-82
2022/06/30 02:53:58;;;;;;;;;;;;;;;21.41;56.70;100877.59;7280505;19;152081;-82
2022/06/30 02:56:25;;;;;;;;;;;;;;;21.46;55.85;100878.31;7283495;19;152016;-82
2022/06/30 02:58:52;;;;;;;;;;;;;;;21.43;56.04;100876.16;7282147;19;152762;-83
2022/06/30 03:01:18;;;;;;;;;;;;;;;21.41;56.35;100875.63;7277557;19;154133;-83
2022/06/30 03:03:45;;;;;;;;;;;;;;;21.47;56.11;100873.53;7280745;19;152075;-83
2022/06/30 03:06:12;;;;;;;;;;;;;;;21.50;55.82;100868.09;7277675;19;153573;-82
2022/06/30 03:08:39;;;;;;;;;;;;;;;21.59;56.01;100870.97;7285818;19;154323;-82
2022/06/30 03:11:06;;;;;;;;;;;;;;;21.56;55.70;100882.88;7280199;19;153485;-82
2022/06/30 03:13:32;;;;;;;;;;;;;;;21.62;55.67;100876.78;7281148;19;153565;-83
2022/06/30 03:16:01;;;;;;;;;;;;;;;21.64;55.76;100879.31;7282000;19;153642;-83
2022/06/30 03:18:29;;;;;;;;;;;;;;;21.69;55.22;100880.03;7282308;19;154508;-83
2022/06/30 03:20:56;;;;;;;;;;;;;;;21.57;56.14;100881.75;7277368;19;153264;-83
2022/06/30 03:23:23;;;;;;;;;;;;;;;21.54;56.06;100886.00;7279249;19;152477;-83
2022/06/30 03:25:50;;;;;;;;;;;;;;;21.53;56.38;100887.13;7278834;19;152814;-82
2022/06/30 03:28:17;;;;;;;;;;;;;;;21.52;56.40;100890.28;7280647;19;152632;-82
2022/06/30 03:30:47;;;;;;;;;;;;;;;21.55;56.41;100884.03;7286300;19;151945;-82
2022/06/30 03:33:14;;;;;;;;;;;;;;;21.59;56.18;100883.06;7280104;19;154351;-82
2022/06/30 03:35:41;;;;;;;;;;;;;;;21.51;56.61;100880.19;7278386;19;151981;-83
2022/06/30 03:38:08;;;;;;;;;;;;;;;21.47;57.12;100887.59;7281395;19;154622;-82
2022/06/30 03:40:34;;;;;;;;;;;;;;;21.46;56.90;100888.72;7278207;19;154429;-82
2022/06/30 03:43:01;;;;;;;;;;;;;;;21.45;57.04;100885.09;7278672;19;152259;-82
2022/06/30 03:45:29;;;;;;;;;;;;;;;21.48;57.25;100890.09;7279170;19;154209;-82
2022/06/30 03:47:59;;;;;;;;;;;;;;;21.50;57.25;100896.22;7280234;19;153032;-83
2022/06/30 03:50:26;;;;;;;;;;;;;;;21.49;57.16;100888.91;7278565;19;151649;-82
2022/06/30 03:52:54;;;;;;;;;;;;;;;21.44;57.02;100899.47;7288118;19;152674;-82
2022/06/30 03:55:20;;;;;;;;;;;;;;;21.43;57.37;100892.19;7283975;19;153295;-82
2022/06/30 03:57:47;;;;;;;;;;;;;;;21.40;57.26;100885.19;7288226;19;152576;-82
2022/06/30 04:00:14;;;;;;;;;;;;;;;21.43;57.36;100884.59;7285106;19;154845;-81
2022/06/30 04:02:41;;;;;;;;;;;;;;;21.44;57.09;100880.59;7285046;19;156950;-81
2022/06/30 04:05:08;;;;;;;;;;;;;;;21.41;57.43;100900.09;7282657;19;152383;-81
2022/06/30 04:07:42;;;;;;;;;;;;;;;21.39;57.41;100892.00;7284559;19;153231;-82
2022/06/30 04:10:10;;;;;;;;;;;;;;;21.42;57.20;100885.72;7287626;19;152162;-81
2022/06/30 04:12:37;;;;;;;;;;;;;;;21.46;57.12;100886.75;7287662;19;154809;-81
2022/06/30 04:15:04;;;;;;;;;;;;;;;21.47;56.79;100890.41;7292948;19;152593;-82
2022/06/30 04:17:33;;;;;;;;;;;;;;;21.54;56.77;100882.34;7285825;19;154220;-82
2022/06/30 04:20:00;;;;;;;;;;;;;;;21.48;56.94;100883.63;7281644;19;154349;-81
2022/06/30 04:22:27;;;;;;;;;;;;;;;21.42;56.79;100879.28;7283443;19;152555;-81
2022/06/30 04:24:54;;;;;;;;;;;;;;;21.44;57.25;100889.03;7285988;19;153888;-81
2022/06/30 04:27:21;;;;;;;;;;;;;;;21.45;57.01;100885.09;7284674;19;153157;-80
2022/06/30 04:29:48;;;;;;;;;;;;;;;21.43;56.90;100878.97;7286150;19;152764;-82
2022/06/30 04:35:00;;;;;;;;;;;;;;;21.40;56.92;100881.56;7281601;19;154556;-81
2022/06/30 04:37:27;;;;;;;;;;;;;;;21.43;57.14;100881.78;7292773;19;152257;-81
2022/06/30 04:41:23;;;;;;;;;;;;;;;21.51;56.55;100894.25;7282100;19;153229;-80
2022/06/30 04:42:40;;;;;;;;;;;;;;;21.51;56.92;100897.88;7283999;19;157161;-80
2022/06/30 04:45:07;;;;;;;;;;;;;;;21.50;56.95;100901.00;7287138;19;153534;-80
2022/06/30 04:47:35;;;;;;;;;;;;;;;21.42;57.21;100894.16;7283172;19;153960;-82
2022/06/30 04:50:04;;;;;;;;;;;;;;;21.47;56.73;100893.22;7284646;19;153007;-82
2022/06/30 04:52:31;;;;;;;;;;;;;;;21.44;56.85;100897.47;7282811;19;154136;-81
2022/06/30 04:55:03;;;;;;;;;;;;;;;21.46;56.95;100900.81;7283562;19;156094;-82
2022/06/30 04:57:30;;;;;;;;;;;;;;;21.48;56.98;100894.88;7294377;19;152476;-82
2022/06/30 04:59:57;;;;;;;;;;;;;;;21.48;57.00;100898.53;7282942;19;153174;-82
2022/06/30 05:02:26;;;;;;;;;;;;;;;21.43;57.16;100893.03;7285046;19;152363;-82
2022/06/30 05:04:52;;;;;;;;;;;;;;;21.41;56.80;100886.88;7283363;19;152967;-82
2022/06/30 05:07:21;;;;;;;;;;;;;;;21.39;57.20;100899.59;7279718;19;154472;-81
2022/06/30 05:09:48;;;;;;;;;;;;;;;21.39;57.43;100885.53;7285748;19;153125;-82
2022/06/30 05:12:14;;;;;;;;;;;;;;;21.39;57.20;100880.75;7285323;19;153213;-81
2022/06/30 05:14:42;;;;;;;;;;;;;;;21.39;57.31;100874.28;7281467;19;153182;-82
2022/06/30 05:17:09;;;;;;;;;;;;;;;21.37;57.15;100879.38;7283149;19;152038;-82
2022/06/30 05:19:35;;;;;;;;;;;;;;;21.34;57.35;100883.66;7289128;19;152015;-82
2022/06/30 05:22:02;;;;;;;;;;;;;;;21.36;57.49;100875.72;7280850;19;152251;-82
2022/06/30 05:27:14;;;;;;;;;;;;;;;21.37;57.34;100887.81;7283489;19;154800;-82
2022/06/30 05:29:41;;;;;;;;;;;;;;;21.41;57.45;100883.22;7284496;19;152896;-83
2022/06/30 05:32:08;;;;;;;;;;;;;;;21.42;57.38;100890.50;7284476;19;152964;-82
2022/06/30 05:34:35;;;;;;;;;;;;;;;21.39;57.04;100892.00;7281568;19;156402;-82
2022/06/30 05:37:05;;;;;;;;;;;;;;;21.37;56.81;100894.28;7280896;19;152198;-82
2022/06/30 05:39:33;;;;;;;;;;;;;;;21.34;57.15;100894.91;7283979;19;153380;-82
2022/06/30 05:42:00;;;;;;;;;;;;;;;21.33;57.44;100914.88;7289221;19;155126;-82
2022/06/30 05:44:28;;;;;;;;;;;;;;;21.34;56.98;100917.41;7284905;19;152888;-82
2022/06/30 05:46:55;;;;;;;;;;;;;;;21.46;56.81;100914.03;7283703;19;152645;-81
2022/06/30 05:49:25;;;;;;;;;;;;;;;21.43;56.32;100918.31;7282355;19;152375;-81
2022/06/30 05:51:52;;;;;;;;;;;;;;;21.45;56.63;100923.59;7283011;19;152767;-82
2022/06/30 05:54:19;;;;;;;;;;;;;;;21.44;56.41;100921.97;7283393;19;152504;-81
2022/06/30 05:56:46;;;;;;;;;;;;;;;21.38;56.65;100917.59;7282990;19;153866;-82
2022/06/30 05:59:13;;;;;;;;;;;;;;;21.36;56.99;100914.25;7285347;19;153065;-82
2022/06/30 06:01:40;;;;;;;;;;;;;;;21.37;56.54;100910.28;7282938;19;153201;-82
2022/06/30 06:04:07;;;;;;;;;;;;;;;21.43;56.53;100907.06;7287707;19;152450;-81
2022/06/30 06:06:33;;;;;;;;;;;;;;;21.36;56.53;100915.09;7277366;19;155541;-81
2022/06/30 06:09:01;;;;;;;;;;;;;;;21.32;56.68;100902.81;7283993;19;152188;-81
2022/06/30 06:11:30;;;;;;;;;;;;;;;21.32;56.56;100902.81;7284002;19;152922;-81
2022/06/30 06:13:56;;;;;;;;;;;;;;;21.31;56.75;100909.56;7282114;19;153205;-82
2022/06/30 06:16:23;;;;;;;;;;;;;;;21.32;56.63;100908.44;7284730;19;152005;-82
2022/06/30 06:18:50;;;;;;;;;;;;;;;21.34;56.83;100913.75;7283119;19;152270;-82
2022/06/30 06:21:17;;;;;;;;;;;;;;;21.34;56.84;100916.56;7280274;19;153576;-81
2022/06/30 06:23:46;;;;;;;;;;;;;;;21.32;56.64;100902.81;7280826;19;152284;-82
2022/06/30 06:26:13;;;;;;;;;;;;;;;21.32;56.41;100914.06;7289099;19;152131;-82
2022/06/30 06:31:25;;;;;;;;;;;;;;;21.35;56.60;100921.84;7282107;19;154084;-82
2022/06/30 06:33:52;;;;;;;;;;;;;;;21.33;56.57;100921.34;7279772;19;153900;-82
2022/06/30 06:36:19;;;;;;;;;;;;;;;21.28;56.53;100913.84;7277836;19;152428;-82
2022/06/30 06:38:46;;;;;;;;;;;;;;;21.32;56.05;100916.03;7285126;19;153023;-82
2022/06/30 06:41:14;;;;;;;;;;;;;;;21.37;56.11;100930.81;7283461;19;154094;-85
2022/06/30 06:43:41;;;;;;;;;;;;;;;21.11;53.41;100927.69;7280387;19;151887;-81
2022/06/30 06:46:08;;;;;;;;;;;;;;;21.11;54.51;100929.66;7283908;19;153360;-81
2022/06/30 06:48:35;;;;;;;;;;;;;;;21.15;54.80;100930.72;7288465;19;151917;-82
2022/06/30 06:51:02;;;;;;;;;;;;;;;21.19;54.62;100921.38;7281305;19;153911;-85
2022/06/30 06:53:29;;;;;;;;;;;;;;;21.34;54.41;100928.63;7281863;19;154541;-83
2022/06/30 06:55:56;;;;;;;;;;;;;;;21.32;54.39;100918.84;7282913;19;152150;-82
2022/06/30 06:58:23;;;;;;;;;;;;;;;21.36;54.08;100923.50;7282089;19;153975;-82
2022/06/30 07:00:52;;;;;;;;;;;;;;;21.33;54.43;100915.72;7282008;19;153345;-82
2022/06/30 07:03:19;;;;;;;;;;;;;;;21.23;54.73;100913.13;7278812;19;152251;-82
2022/06/30 07:05:46;;;;;;;;;;;;;;;21.24;54.63;100921.25;7279303;19;152691;-81
2022/06/30 07:08:13;;;;;;;;;;;;;;;21.19;54.83;100923.34;7287141;19;154526;-83
2022/06/30 07:10:40;;;;;;;;;;;;;;;21.30;54.51;100921.97;7280867;19;153468;-83
2022/06/30 07:13:06;;;;;;;;;;;;;;;21.37;54.20;100918.72;7281657;19;154079;-82
2022/06/30 07:15:33;;;;;;;;;;;;;;;21.32;54.32;100922.47;7281857;19;151831;-83
2022/06/30 07:18:00;;;;;;;;;;;;;;;21.29;54.45;100931.56;7281532;19;153720;-83
2022/06/30 07:20:27;;;;;;;;;;;;;;;21.42;53.66;100939.13;7275134;19;154582;-82
2022/06/30 07:22:54;;;;;;;;;;;;;;;21.37;54.04;100936.44;7280377;19;151732;-84
2022/06/30 07:25:41;;;;;;;;;;;;;;;21.42;53.63;100927.06;7281914;19;154879;-83
2022/06/30 07:28:07;;;;;;;;;;;;;;;21.41;53.29;100931.84;7279153;19;154504;-83
2022/06/30 07:30:34;;;;;;;;;;;;;;;21.44;53.43;100939.63;7298896;19;152819;-83
2022/06/30 07:33:01;;;;;;;;;;;;;;;21.43;53.21;100931.53;7294307;19;153795;-83
2022/06/30 07:35:34;;;;;;;;;;;;;;;21.35;53.49;100935.91;7293517;19;152453;-82
2022/06/30 07:38:00;;;;;;;;;;;;;;;21.22;54.16;100925.50;7294140;19;153262;-83
2022/06/30 07:40:27;;;;;;;;;;;;;;;21.24;54.08;100938.13;7294277;19;153448;-82
2022/06/30 07:42:55;;;;;;;;;;;;;;;21.26;53.86;100930.19;7294005;19;151863;-86
2022/06/30 07:45:23;;;;;;;;;;;;;;;21.23;54.33;100935.59;7294674;19;156600;-86
2022/06/30 07:47:51;;;;;;;;;;;;;;;21.19;54.53;100940.19;7290992;19;156574;-85
2022/06/30 07:50:18;;;;;;;;;;;;;;;21.26;53.77;100949.84;7288660;19;152150;-85
2022/06/30 07:52:45;;;;;;;;;;;;;;;21.29;53.70;100949.25;7298025;19;153063;-86
2022/06/30 07:55:12;;;;;;;;;;;;;;;21.23;53.35;100950.50;7295132;19;151947;-86
2022/06/30 07:57:42;;;;;;;;;;;;;;;21.17;53.65;100954.53;7293199;19;154360;-86
2022/06/30 08:00:10;;;;;;;;;;;;;;;21.24;53.46;100957.78;7292685;19;153563;-86
2022/06/30 08:02:37;;;;;;;;;;;;;;;21.29;53.41;100954.03;7294618;19;151876;-85
2022/06/30 08:05:03;;;;;;;;;;;;;;;21.27;53.21;100961.94;7292027;19;153164;-86
2022/06/30 08:07:30;;;;;;;;;;;;;;;21.18;53.31;100956.22;7292617;19;153300;-86
2022/06/30 08:09:57;;;;;;;;;;;;;;;21.28;52.49;100963.59;7294873;19;152234;-86
2022/06/30 08:12:24;;;;;;;;;;;;;;;21.30;52.84;100950.09;7294534;19;153327;-86
2022/06/30 08:14:51;;;;;;;;;;;;;;;21.27;52.81;100967.56;7300349;19;153591;-86
2022/06/30 08:17:18;;;;;;;;;;;;;;;21.26;52.72;100963.06;7291797;19;153078;-86
2022/06/30 08:19:45;;;;;;;;;;;;;;;21.27;52.71;100967.56;7292381;19;152884;-86
2022/06/30 08:22:11;;;;;;;;;;;;;;;21.25;52.46;100964.25;7290923;19;152251;-86
2022/06/30 08:24:38;;;;;;;;;;;;;;;21.16;52.90;100963.31;7291146;19;152508;-85
2022/06/30 08:27:05;;;;;;;;;;;;;;;21.22;52.79;100950.78;7293817;19;153213;-86
2022/06/30 08:29:35;;;;;;;;;;;;;;;21.21;52.58;100951.97;7293893;19;155883;-85
2022/06/30 08:32:03;;;;;;;;;;;;;;;21.21;52.25;100941.53;7293101;19;153379;-85
2022/06/30 08:34:30;;;;;;;;;;;;;;;21.16;52.48;100955.72;7294159;19;154264;-86
2022/06/30 08:36:57;;;;;;;;;;;;;;;21.25;52.13;100964.25;7301564;19;152138;-85
2022/06/30 08:42:11;;;;;;;;;;;;;;;21.24;51.76;100954.97;7300529;19;151822;-85
2022/06/30 08:44:41;;;;;;;;;;;;;;;21.22;51.95;100959.22;7296752;19;153085;-84
2022/06/30 08:47:14;;;;;;;;;;;;;;;21.26;51.70;100957.44;7283442;19;153330;-85
2022/06/30 08:49:41;;;;;;;;;;;;;;;21.19;51.79;100957.88;7282773;19;152427;-84
2022/06/30 08:52:10;;;;;;;;;;;;;;;21.16;52.06;100958.53;7284992;19;154220;-85
2022/06/30 08:54:38;;;;;;;;;;;;;;;21.17;51.96;100960.16;7283807;19;153631;-85
2022/06/30 08:57:06;;;;;;;;;;;;;;;21.14;51.79;100962.78;7291862;19;152309;-85
2022/06/30 08:59:32;;;;;;;;;;;;;;;21.13;52.00;100949.88;7285054;19;152947;-86
2022/06/30 09:02:00;;;;;;;;;;;;;;;21.23;51.55;100953.31;7286662;19;152086;-84
2022/06/30 09:04:27;;;;;;;;;;;;;;;21.23;51.21;100953.31;7283641;19;152748;-87
2022/06/30 09:06:54;;;;;;;;;;;;;;;21.27;51.09;100947.88;7290068;19;155524;-85
2022/06/30 09:09:21;;;;;;;;;;;;;;;21.19;51.28;100945.81;7287598;19;151926;-82
2022/06/30 09:11:52;;;;;;;;;;;;;;;21.19;51.21;100949.47;7292949;19;151496;-82
2022/06/30 09:14:34;;;;;;;;;;;;;;;21.12;51.33;100943.38;7294999;19;155893;-82
2022/06/30 09:17:02;;;;;;;;;;;;;;;21.12;51.05;100956.63;7291550;19;152891;-82
2022/06/30 09:19:29;;;;;;;;;;;;;;;21.06;51.42;100955.06;7293857;19;153216;-81
2022/06/30 09:22:02;;;;;;;;;;;;;;;21.11;51.29;100964.22;7283864;19;152140;-81
2022/06/30 09:24:29;;;;;;;;;;;;;;;21.18;50.69;100958.19;7287978;19;153345;-81
2022/06/30 09:27:17;;;;;;;;;;;;;;;21.14;50.79;100948.72;7287017;19;153946;-82
2022/06/30 09:29:44;;;;;;;;;;;;;;;21.18;50.95;100946.94;7286577;19;152492;-81
2022/06/30 09:32:42;;;;;;;;;;;;;;;21.14;50.48;100952.38;7285091;19;154328;-81
2022/06/30 09:35:10;;;;;;;;;;;;;;;21.18;50.51;100936.56;7281676;19;153615;-80
2022/06/30 09:37:37;;;;;;;;;;;;;;;21.11;51.16;100938.09;7284865;19;153653;-81
2022/06/30 09:40:06;;;;;;;;;;;;;;;21.21;50.64;100949.97;7284131;19;153175;-81
2022/06/30 09:42:39;;;;;;;;;;;;;;;21.24;50.10;100954.13;7293979;19;153557;-81
2022/06/30 09:45:34;;;;;;;;;;;;;;;21.21;49.65;100949.97;7295402;19;155367;-79
2022/06/30 09:48:01;;;;;;;;;;;;;;;21.09;50.82;100946.00;7292935;19;152912;-82
2022/06/30 09:50:28;;;;;;;;;;;;;;;21.14;50.23;100943.09;7283722;19;152431;-80
2022/06/30 09:53:04;;;;;;;;;;;;;;;21.18;50.21;100950.59;7283421;19;155375;-81
2022/06/30 09:55:42;;;;;;;;;;;;;;;21.19;49.46;100938.22;7283855;19;152561;-81
2022/06/30 09:58:09;;;;;;;;;;;;;;;21.18;49.57;100946.94;7287013;19;152052;-82
2022/06/30 10:00:43;;;;;;;;;;;;;;;21.19;49.61;100943.00;7236048;19;159292;-82
2022/06/30 10:03:10;;;;;;;;;;;;;;;21.15;49.67;100942.81;7282096;19;153740;-81
2022/06/30 10:05:38;;;;;;;;;;;;;;;21.16;49.40;100938.84;7286277;19;151962;-81
2022/06/30 10:08:05;;;;;;;;;;;;;;;21.12;49.86;100951.81;7281738;19;154953;-81
2022/06/30 10:10:32;;;;;;;;;;;;;;;21.17;49.61;100942.47;7284735;19;152337;-81
2022/06/30 10:12:59;;;;;;;;;;;;;;;21.12;49.75;100943.38;7291033;19;152648;-81
2022/06/30 10:15:26;;;;;;;;;;;;;;;21.06;50.11;100947.47;7283443;19;153501;-81
2022/06/30 10:17:53;;;;;;;;;;;;;;;21.07;49.88;100937.06;7284563;19;151944;-81
2022/06/30 10:20:20;;;;;;;;;;;;;;;21.10;50.06;100942.88;7281057;19;152976;-81
2022/06/30 10:22:47;;;;;;;;;;;;;;;21.15;49.24;100947.59;7281455;19;153842;-81
2022/06/30 10:25:15;;;;;;;;;;;;;;;21.13;49.47;100958.28;7280388;19;152420;-81
2022/06/30 10:27:44;;;;;;;;;;;;;;;21.08;49.63;100958.34;7291267;19;152780;-81
2022/06/30 10:30:13;;;;;;;;;;;;;;;21.14;49.13;100955.19;7285746;19;152016;-80
2022/06/30 10:32:46;;;;;;;;;;;;;;;21.15;48.95;100956.84;7283478;19;154145;-80
2022/06/30 10:35:36;;;;;;;;;;;;;;;21.14;48.58;100962.78;7280955;19;152681;-81
2022/06/30 10:38:02;;;;;;;;;;;;;;;21.16;48.48;100955.72;7294277;19;152206;-81
2022/06/30 10:40:29;;;;;;;;;;;;;;;21.15;48.53;100948.44;7295171;19;151659;-82
2022/06/30 10:42:57;;;;;;;;;;;;;;;21.11;48.46;100958.59;7293632;19;152190;-81
2022/06/30 10:45:26;;;;;;;;;;;;;;;21.14;48.70;100949.56;7282022;19;155997;-81
2022/06/30 10:47:56;;;;;;;;;;;;;;;21.13;47.83;100961.09;7283192;19;152975;-81
2022/06/30 10:50:34;;;;;;;;;;;;;;;21.16;48.13;100943.63;7285763;19;153612;-81
2022/06/30 10:53:02;;;;;;;;;;;;;;;21.03;48.73;100955.69;7281633;19;156470;-82
2022/06/30 10:55:41;;;;;;;;;;;;;;;21.07;48.28;100945.47;7282614;19;154011;-81
2022/06/30 10:58:08;;;;;;;;;;;;;;;21.11;48.38;100949.31;7285839;19;152312;-81
2022/06/30 11:00:42;;;;;;;;;;;;;;;21.16;48.51;100943.63;7283592;19;152983;-81
2022/06/30 11:03:29;;;;;;;;;;;;;;;21.17;47.99;100945.28;7284836;19;153345;-81
2022/06/30 11:06:01;;;;;;;;;;;;;;;21.06;48.63;100938.19;7277745;19;151869;-82
2022/06/30 11:08:39;;;;;;;;;;;;;;;21.13;48.28;100947.06;7282430;19;153833;-81
2022/06/30 11:11:25;;;;;;;;;;;;;;;21.17;48.00;100950.91;7288606;19;152710;-81
2022/06/30 11:14:01;;;;;;;;;;;;;;;21.03;48.38;100953.69;7284160;19;153847;-82
2022/06/30 11:16:31;;;;;;;;;;;;;;;21.05;48.67;100939.34;7283301;19;153253;-81
2022/06/30 11:18:58;;;;;;;;;;;;;;;21.03;48.56;100941.63;7286790;19;154552;-82
2022/06/30 11:21:28;;;;;;;;;;;;;;;21.03;48.48;100933.22;7287830;19;152719;-82
2022/06/30 11:23:58;;;;;;;;;;;;;;;21.04;48.36;100946.09;7287341;19;154114;-81
2022/06/30 11:29:15;;;;;;;;;;;;;;;21.08;48.14;100939.53;7282576;19;153319;-82
2022/06/30 11:31:42;;;;;;;;;;;;;;;21.01;48.86;100939.13;7281699;19;153277;-81
2022/06/30 11:34:16;;;;;;;;;;;;;;;20.98;48.93;100942.56;7286021;19;152340;-82
2022/06/30 11:36:44;;;;;;;;;;;;;;;21.01;48.78;100933.50;7281255;19;154197;-82
2022/06/30 11:39:15;;;;;;;;;;;;;;;20.97;49.09;100945.69;7283002;19;151919;-81
2022/06/30 11:41:55;;;;;;;;;;;;;;;20.97;49.04;100954.09;7286584;19;154028;-82
2022/06/30 11:44:29;;;;;;;;;;;;;;;20.96;48.98;100947.66;7279748;19;153991;-82
2022/06/30 11:46:57;;;;;;;;;;;;;;;20.96;48.93;100939.22;7281942;19;151787;-81
2022/06/30 11:49:27;;;;;;;;;;;;;;;20.95;49.14;100937.56;7280642;19;153972;-81
2022/06/30 11:51:54;;;;;;;;;;;;;;;20.92;49.12;100937.34;7276401;19;154286;-81
2022/06/30 11:54:22;;;;;;;;;;;;;;;20.99;48.57;100941.41;7281554;19;154378;-81
2022/06/30 11:56:52;;;;;;;;;;;;;;;20.97;49.01;100954.94;7287760;19;152969;-81
2022/06/30 11:59:19;;;;;;;;;;;;;;;20.95;48.83;100960.03;7287490;19;152108;-82
2022/06/30 12:02:00;;;;;;;;;;;;;;;21.00;48.95;100956.28;7286993;19;153459;-81
2022/06/30 12:04:27;;;;;;;;;;;;;;;20.94;49.43;100949.94;7283643;19;153859;-81
2022/06/30 12:07:02;;;;;;;;;;;;;;;20.93;49.04;100942.66;7281054;19;151852;-81
2022/06/30 12:09:29;;;;;;;;;;;;;;;20.92;49.16;100942.97;7282822;19;153031;-81
2022/06/30 12:11:57;;;;;;;;;;;;;;;20.94;49.02;100941.50;7281180;19;156713;-82
2022/06/30 12:14:24;;;;;;;;;;;;;;;20.96;49.28;100939.22;7282675;19;152926;-81
2022/06/30 12:16:57;;;;;;;;;;;;;;;20.96;48.84;100941.19;7286964;19;154202;-82
2022/06/30 12:19:25;;;;;;;;;;;;;;;20.94;49.28;100947.13;7306053;19;153545;-82
2022/06/30 12:21:54;;;;;;;;;;;;;;;21.00;48.38;100945.88;7298379;19;153799;-79
2022/06/30 12:24:24;;;;;;;;;;;;;;;20.96;49.08;100944.00;7296749;19;153627;-80
2022/06/30 12:26:54;;;;;;;;;;;;;;;21.01;48.79;100938.28;7299101;19;151793;-82
2022/06/30 12:29:27;;;;;;;;;;;;;;;20.98;48.57;100938.94;7295701;19;152024;-82
2022/06/30 12:31:57;;;;;;;;;;;;;;;20.95;49.12;100929.13;7285689;19;153910;-83
2022/06/30 12:34:24;;;;;;;;;;;;;;;20.94;48.77;100927.47;7287635;19;152295;-81
2022/06/30 12:36:51;;;;;;;;;;;;;;;20.94;48.88;100926.66;7284556;19;152616;-81
2022/06/30 12:39:18;;;;;;;;;;;;;;;20.94;49.20;100929.47;7287957;19;152872;-81
2022/06/30 12:41:44;;;;;;;;;;;;;;;20.94;48.94;100926.66;7294376;19;152072;-82
2022/06/30 12:44:11;;;;;;;;;;;;;;;20.93;49.34;100939.88;7285556;19;153421;-82
2022/06/30 12:46:39;;;;;;;;;;;;;;;20.94;49.11;100935.88;7286507;19;152030;-82
2022/06/30 12:49:18;;;;;;;;;;;;;;;20.91;48.87;100922.47;7289054;19;153729;-81
2022/06/30 12:51:45;;;;;;;;;;;;;;;20.92;48.87;100915.72;7284250;19;154422;-82
2022/06/30 12:54:12;;;;;;;;;;;;;;;20.93;48.75;100927.78;7285283;19;152143;-81
2022/06/30 12:56:41;;;;;;;;;;;;;;;20.93;49.05;100928.63;7286005;19;152708;-82
2022/06/30 12:59:12;;;;;;;;;;;;;;;20.95;48.81;100936.72;7286824;19;154888;-81